createdAt,value
2023-04-18T00:09:43.287Z,255
2023-04-18T00:29:43.317Z,263
2023-04-18T01:09:43.333Z,254
2023-04-18T01:29:43.332Z,257
2023-04-18T02:29:43.448Z,260
2023-04-18T02:49:43.481Z,255
2023-04-18T03:09:43.499Z,253
2023-04-18T03:29:43.513Z,256
2023-04-18T03:49:43.547Z,253
2023-04-18T04:09:43.578Z,253
2023-04-18T04:29:50.604Z,257
2023-04-18T04:49:43.663Z,255
2023-04-18T05:09:43.713Z,254
2023-04-18T05:29:43.765Z,257
2023-04-18T06:09:43.765Z,255
2023-04-18T06:29:43.793Z,252
2023-04-18T06:49:43.805Z,255
2023-04-18T07:09:43.867Z,256
2023-04-18T07:29:43.904Z,248
2023-04-18T07:49:43.900Z,252
2023-04-18T08:09:44.002Z,253
2023-04-18T08:29:43.942Z,253
2023-04-18T08:49:44.039Z,253
2023-04-18T09:09:44.029Z,248
2023-04-18T09:29:44.027Z,251
2023-04-18T09:49:44.020Z,247
2023-04-18T10:09:44.074Z,251
2023-04-18T10:29:44.118Z,251
2023-04-18T10:49:44.133Z,251
2023-04-18T11:09:45.496Z,250
2023-04-18T11:29:44.154Z,250
2023-04-18T11:49:44.174Z,249
2023-04-18T12:09:44.344Z,245
2023-04-18T12:29:44.199Z,248
2023-04-18T12:49:44.240Z,243
2023-04-18T13:09:44.257Z,244
2023-04-18T13:29:44.256Z,244
2023-04-18T13:49:44.300Z,248
2023-04-18T14:09:44.388Z,245
2023-04-18T14:29:44.345Z,246
2023-04-18T14:49:44.356Z,243
2023-04-18T15:09:44.371Z,237
2023-04-18T15:29:44.367Z,243
2023-04-18T15:49:44.536Z,241
2023-04-18T16:09:44.442Z,240
2023-04-18T16:29:44.429Z,244
2023-04-18T16:49:44.466Z,244
2023-04-18T17:09:44.471Z,246
2023-04-18T17:29:44.477Z,248
2023-04-18T17:49:44.501Z,245
2023-04-18T18:09:44.548Z,245
2023-04-18T18:29:44.626Z,246
2023-04-18T18:49:44.575Z,245
2023-04-18T19:09:44.558Z,244
2023-04-18T19:29:44.608Z,244
2023-04-18T19:49:44.701Z,246
2023-04-18T20:09:44.652Z,248
2023-04-18T21:09:44.702Z,247
2023-04-18T21:29:44.716Z,244
2023-04-18T21:49:44.762Z,244
2023-04-18T22:09:44.784Z,242
2023-04-18T22:29:44.782Z,246
2023-04-18T22:49:44.823Z,244
2023-04-18T23:09:44.850Z,242
2023-04-18T23:49:44.909Z,246
